createdAt,value
2023-05-14T00:02:04.138Z,19.63
2023-05-14T00:04:34.320Z,21.20
2023-05-14T00:07:02.406Z,20.27
2023-05-14T00:09:32.866Z,18.73
2023-05-14T00:11:59.867Z,19.60
2023-05-14T00:14:27.915Z,20.33
2023-05-14T00:16:55.193Z,19.33
2023-05-14T00:19:25.587Z,19.27
2023-05-14T00:21:55.646Z,18.73
2023-05-14T00:24:23.080Z,19.97
2023-05-14T00:26:51.089Z,20.87
2023-05-14T00:29:19.161Z,21.53
2023-05-14T00:31:49.467Z,20.33
2023-05-14T00:34:18.791Z,19.57
2023-05-14T00:36:48.875Z,20.37
2023-05-14T00:39:15.848Z,19.83
2023-05-14T00:41:42.929Z,18.77
2023-05-14T00:44:09.978Z,19.63
2023-05-14T00:46:40.287Z,19.83
2023-05-14T00:49:07.350Z,21.43
2023-05-14T00:51:34.612Z,20.57
2023-05-14T00:54:04.845Z,20.47
2023-05-14T00:56:35.263Z,20.47
2023-05-14T00:59:03.380Z,20.47
2023-05-14T01:01:32.526Z,20.53
2023-05-14T01:04:03.037Z,19.20
2023-05-14T01:06:58.343Z,19.53
2023-05-14T01:09:44.867Z,19.57
2023-05-14T01:12:27.448Z,17.77
2023-05-14T01:15:20.081Z,18.67
2023-05-14T01:18:04.868Z,18.63
2023-05-14T01:20:35.431Z,20.50
2023-05-14T01:23:04.441Z,19.80
2023-05-14T01:25:33.876Z,19.53
2023-05-14T01:28:20.776Z,18.47
2023-05-14T01:31:08.133Z,19.67
2023-05-14T01:33:43.493Z,21.20
2023-05-14T01:36:16.631Z,19.47
2023-05-14T01:38:49.908Z,20.13
2023-05-14T01:41:21.993Z,19.17
2023-05-14T01:43:49.415Z,18.90
2023-05-14T01:46:20.780Z,16.77
2023-05-14T01:48:51.063Z,19.00
2023-05-14T01:51:18.301Z,18.80
2023-05-14T01:53:45.405Z,18.13
2023-05-14T01:56:12.343Z,19.30
2023-05-14T01:58:42.374Z,18.30
2023-05-14T02:01:09.398Z,19.30
2023-05-14T02:03:42.658Z,20.23
2023-05-14T02:06:09.685Z,18.90
2023-05-14T02:08:37.752Z,20.30
2023-05-14T02:11:07.825Z,20.17
2023-05-14T02:13:34.780Z,20.73
2023-05-14T02:16:05.297Z,20.63
2023-05-14T02:18:34.527Z,19.17
2023-05-14T02:21:02.768Z,18.23
2023-05-14T02:23:41.006Z,19.27
2023-05-14T02:26:10.916Z,18.77
2023-05-14T02:28:41.105Z,18.10
2023-05-14T02:31:08.069Z,18.87
2023-05-14T02:33:38.323Z,17.70
2023-05-14T02:36:06.536Z,20.00
2023-05-14T02:38:36.600Z,18.33
2023-05-14T02:41:06.924Z,18.13
2023-05-14T02:43:37.058Z,19.27
2023-05-14T02:46:04.298Z,17.57
2023-05-14T02:48:34.390Z,17.67
2023-05-14T02:51:03.385Z,17.80
2023-05-14T02:53:32.472Z,17.90
2023-05-14T02:56:02.724Z,17.53
2023-05-14T02:58:29.705Z,17.93
2023-05-14T03:00:56.882Z,17.67
2023-05-14T03:03:24.453Z,19.90
2023-05-14T03:05:52.091Z,18.43
2023-05-14T03:08:22.200Z,19.30
2023-05-14T03:10:51.364Z,19.37
2023-05-14T03:13:20.097Z,19.67
2023-05-14T03:15:54.949Z,18.03
2023-05-14T03:18:25.268Z,18.87
2023-05-14T03:20:55.331Z,20.17
2023-05-14T03:23:25.508Z,20.50
2023-05-14T03:25:58.564Z,20.80
2023-05-14T03:28:26.158Z,19.53
2023-05-14T03:30:53.277Z,18.30
2023-05-14T03:33:21.295Z,19.73
2023-05-14T03:35:48.374Z,19.80
2023-05-14T03:38:15.382Z,18.50
2023-05-14T03:40:45.607Z,17.70
2023-05-14T03:43:16.426Z,19.77
2023-05-14T03:45:47.093Z,19.37
2023-05-14T03:48:14.263Z,18.17
2023-05-14T03:50:42.314Z,17.87
2023-05-14T03:53:15.362Z,18.83
2023-05-14T03:55:45.462Z,18.57
2023-05-14T03:58:15.833Z,17.80
2023-05-14T04:00:46.087Z,18.40
2023-05-14T04:03:13.114Z,17.23
2023-05-14T04:05:40.124Z,19.83
2023-05-14T04:08:08.193Z,19.73
2023-05-14T04:10:36.293Z,19.77
2023-05-14T04:13:05.329Z,19.40
2023-05-14T04:15:32.270Z,17.77
2023-05-14T04:18:01.506Z,16.33
2023-05-14T04:20:31.682Z,17.43
2023-05-14T04:23:01.956Z,18.23
2023-05-14T04:25:30.591Z,16.43
2023-05-14T04:27:58.776Z,17.00
2023-05-14T04:30:28.956Z,17.30
2023-05-14T04:32:58.261Z,16.50
2023-05-14T04:35:31.431Z,17.60
2023-05-14T04:37:59.415Z,16.67
2023-05-14T04:40:26.654Z,17.57
2023-05-14T04:42:57.112Z,16.90
2023-05-14T04:45:25.038Z,15.30
2023-05-14T04:47:53.304Z,15.73
2023-05-14T04:50:21.697Z,18.07
2023-05-14T04:52:52.074Z,19.33
2023-05-14T04:55:22.583Z,19.23
2023-05-14T04:57:49.623Z,17.10
2023-05-14T05:00:22.199Z,17.03
2023-05-14T05:02:52.621Z,16.07
2023-05-14T05:05:19.810Z,18.67
2023-05-14T05:07:46.909Z,18.47
2023-05-14T05:10:17.013Z,16.97
2023-05-14T05:12:46.220Z,20.10
2023-05-14T05:15:14.233Z,16.80
2023-05-14T05:17:42.299Z,17.37
2023-05-14T05:20:11.943Z,17.40
2023-05-14T05:22:40.069Z,19.30
2023-05-14T05:25:09.245Z,18.53
2023-05-14T05:27:39.372Z,18.83
2023-05-14T05:30:07.496Z,18.93
2023-05-14T05:32:36.913Z,17.50
2023-05-14T05:35:07.209Z,17.53
2023-05-14T05:37:37.362Z,16.43
2023-05-14T05:40:07.142Z,17.20
2023-05-14T05:42:36.290Z,16.97
2023-05-14T05:45:04.610Z,17.53
2023-05-14T05:47:34.838Z,17.67
2023-05-14T05:50:05.511Z,16.57
2023-05-14T05:52:34.617Z,17.03
2023-05-14T05:55:01.864Z,16.73
2023-05-14T05:57:29.898Z,17.00
2023-05-14T05:59:56.993Z,17.03
2023-05-14T06:02:30.212Z,15.77
2023-05-14T06:04:57.318Z,17.60
2023-05-14T06:07:26.375Z,17.23
2023-05-14T06:09:56.440Z,16.60
2023-05-14T06:12:26.727Z,19.30
2023-05-14T06:14:58.008Z,17.57
2023-05-14T06:17:25.834Z,17.13
2023-05-14T06:19:55.956Z,15.93
2023-05-14T06:22:22.946Z,15.77
2023-05-14T06:24:53.069Z,18.50
2023-05-14T06:27:22.443Z,14.93
2023-05-14T06:29:52.468Z,15.47
2023-05-14T06:32:19.552Z,14.90
2023-05-14T06:34:46.710Z,14.97
2023-05-14T06:37:13.875Z,15.40
2023-05-14T06:39:44.350Z,16.70
2023-05-14T06:42:11.327Z,16.10
2023-05-14T06:44:41.430Z,13.93
2023-05-14T06:47:11.646Z,15.33
2023-05-14T06:49:41.006Z,15.17
2023-05-14T06:52:08.495Z,17.27
2023-05-14T06:54:36.604Z,17.17
2023-05-14T06:57:12.835Z,15.70
2023-05-14T06:59:45.825Z,16.13
2023-05-14T07:02:14.898Z,15.43
2023-05-14T07:04:42.001Z,16.03
2023-05-14T07:07:13.655Z,16.70
2023-05-14T07:09:43.806Z,17.10
2023-05-14T07:12:13.834Z,16.60
2023-05-14T07:14:43.963Z,15.20
2023-05-14T07:17:11.381Z,16.60
2023-05-14T07:19:41.574Z,16.20
2023-05-14T07:22:11.711Z,14.57
2023-05-14T07:24:41.700Z,15.17
2023-05-14T07:27:12.575Z,13.20
2023-05-14T07:29:40.593Z,14.60
2023-05-14T07:32:11.431Z,14.50
2023-05-14T07:34:41.948Z,14.67
2023-05-14T07:37:09.043Z,13.93
2023-05-14T07:39:36.996Z,15.20
2023-05-14T07:42:06.089Z,14.57
2023-05-14T07:44:33.031Z,14.10
2023-05-14T07:47:00.032Z,13.17
2023-05-14T07:49:26.961Z,12.40
2023-05-14T07:51:55.907Z,13.97
2023-05-14T07:54:23.923Z,14.33
2023-05-14T07:56:50.947Z,13.57
2023-05-14T07:59:21.566Z,13.23
2023-05-14T08:01:48.605Z,13.30
2023-05-14T08:04:18.846Z,13.93
2023-05-14T08:06:46.928Z,13.53
2023-05-14T08:09:14.012Z,13.40
2023-05-14T08:11:42.137Z,12.60
2023-05-14T08:14:11.326Z,12.30
2023-05-14T08:16:40.523Z,12.23
2023-05-14T08:19:10.812Z,13.10
2023-05-14T08:21:39.843Z,11.70
2023-05-14T08:24:07.114Z,11.70
2023-05-14T08:26:38.861Z,12.33
2023-05-14T08:29:09.360Z,12.90
2023-05-14T08:31:37.665Z,11.70
2023-05-14T08:34:04.616Z,12.10
2023-05-14T08:36:31.692Z,11.77
2023-05-14T08:39:01.784Z,11.67
2023-05-14T08:41:29.070Z,12.13
2023-05-14T08:44:13.624Z,12.63
2023-05-14T08:46:47.151Z,11.77
2023-05-14T08:49:32.453Z,11.67
2023-05-14T08:52:02.055Z,11.10
2023-05-14T08:54:32.510Z,11.67
2023-05-14T08:56:59.677Z,10.77
2023-05-14T08:59:27.702Z,11.63
2023-05-14T09:02:01.890Z,11.53
2023-05-14T09:04:30.146Z,10.90
2023-05-14T09:09:29.914Z,11.40
2023-05-14T09:12:01.423Z,11.50
2023-05-14T09:14:28.526Z,10.33
2023-05-14T09:16:55.724Z,10.33
2023-05-14T09:19:23.587Z,10.90
2023-05-14T09:21:56.465Z,9.60
2023-05-14T09:24:29.119Z,10.33
2023-05-14T09:27:02.539Z,9.00
2023-05-14T09:29:32.933Z,9.83
2023-05-14T09:32:04.949Z,9.37
2023-05-14T09:34:38.101Z,8.80
2023-05-14T09:37:07.213Z,8.17
2023-05-14T09:39:37.856Z,8.70
2023-05-14T09:42:05.991Z,8.40
2023-05-14T09:44:36.492Z,8.80
2023-05-14T09:47:06.848Z,7.87
2023-05-14T09:49:35.849Z,9.33
2023-05-14T09:52:06.524Z,8.43
2023-05-14T09:54:38.171Z,8.20
2023-05-14T09:57:07.120Z,8.83
2023-05-14T09:59:35.111Z,8.10
2023-05-14T10:02:03.972Z,8.20
2023-05-14T10:04:34.060Z,8.13
2023-05-14T10:07:02.471Z,8.20
2023-05-14T10:09:31.470Z,8.30
2023-05-14T10:12:01.928Z,7.57
2023-05-14T10:14:43.153Z,7.97
2023-05-14T10:17:18.713Z,7.60
2023-05-14T10:19:54.650Z,8.27
2023-05-14T10:22:27.871Z,7.60
2023-05-14T10:24:56.312Z,7.93
2023-05-14T10:27:27.426Z,7.53
2023-05-14T10:29:56.632Z,7.27
2023-05-14T10:32:25.992Z,7.10
2023-05-14T10:34:54.517Z,8.17
2023-05-14T10:37:23.902Z,7.30
2023-05-14T10:40:08.434Z,6.50
2023-05-14T10:42:43.639Z,6.93
2023-05-14T10:45:13.546Z,7.20
2023-05-14T10:47:43.749Z,7.33
2023-05-14T10:50:14.258Z,7.70
2023-05-14T10:52:43.506Z,7.03
2023-05-14T10:55:14.188Z,7.07
2023-05-14T10:57:46.318Z,6.90
2023-05-14T11:00:17.162Z,7.17
2023-05-14T11:02:46.998Z,7.00
2023-05-14T11:05:17.956Z,6.90
2023-05-14T11:07:47.344Z,7.27
2023-05-14T11:10:21.049Z,7.60
2023-05-14T11:12:53.194Z,7.73
2023-05-14T11:15:23.204Z,7.20
2023-05-14T11:17:52.483Z,7.37
2023-05-14T11:20:21.299Z,7.30
2023-05-14T11:22:51.979Z,6.83
2023-05-14T11:25:26.071Z,7.27
2023-05-14T11:27:56.176Z,6.43
2023-05-14T11:30:25.523Z,7.47
2023-05-14T11:32:54.385Z,7.57
2023-05-14T11:35:21.469Z,7.17
2023-05-14T11:37:53.166Z,7.07
2023-05-14T11:40:22.736Z,7.27
2023-05-14T11:42:53.674Z,7.33
2023-05-14T11:45:30.133Z,7.27
2023-05-14T11:47:58.203Z,6.73
2023-05-14T11:50:28.412Z,6.37
2023-05-14T11:52:58.545Z,7.10
2023-05-14T11:55:29.284Z,6.93
2023-05-14T11:57:59.577Z,6.77
2023-05-14T12:00:27.290Z,7.03
2023-05-14T12:02:55.593Z,6.10
2023-05-14T12:05:25.935Z,5.07
2023-05-14T12:07:59.411Z,6.07
2023-05-14T12:10:28.427Z,5.87
2023-05-14T12:13:06.969Z,6.50
2023-05-14T12:15:34.054Z,6.60
2023-05-14T12:18:22.927Z,6.47
2023-05-14T12:20:52.342Z,6.40
2023-05-14T12:23:29.926Z,6.27
2023-05-14T12:26:06.661Z,6.70
2023-05-14T12:28:38.406Z,6.87
2023-05-14T12:31:07.746Z,6.73
2023-05-14T12:33:34.879Z,7.17
2023-05-14T12:36:13.970Z,7.70
2023-05-14T12:38:48.595Z,6.33
2023-05-14T12:41:18.946Z,6.60
2023-05-14T12:43:49.788Z,6.87
2023-05-14T12:46:18.217Z,6.20
2023-05-14T12:48:49.264Z,6.70
2023-05-14T12:51:17.748Z,6.27
2023-05-14T12:53:49.958Z,6.10
2023-05-14T12:56:17.173Z,6.30
2023-05-14T12:58:46.805Z,6.90
2023-05-14T13:01:13.826Z,6.67
2023-05-14T13:03:41.634Z,5.90
2023-05-14T13:06:11.884Z,6.00
2023-05-14T13:08:42.602Z,5.77
2023-05-14T13:11:10.834Z,6.53
2023-05-14T13:13:37.906Z,6.23
2023-05-14T13:16:08.172Z,6.97
2023-05-14T13:18:37.232Z,6.20
2023-05-14T13:21:06.536Z,6.47
2023-05-14T13:23:35.822Z,6.50
2023-05-14T13:26:02.909Z,6.27
2023-05-14T13:28:33.057Z,6.77
2023-05-14T13:31:12.001Z,6.97
2023-05-14T13:33:42.121Z,8.57
2023-05-14T13:36:10.703Z,6.87
2023-05-14T13:38:38.132Z,7.00
2023-05-14T13:41:09.001Z,7.93
2023-05-14T13:43:36.591Z,7.90
2023-05-14T13:46:07.052Z,6.53
2023-05-14T13:48:37.193Z,8.93
2023-05-14T13:51:05.657Z,8.83
2023-05-14T13:53:33.125Z,13.60
2023-05-14T13:56:01.800Z,7.90
2023-05-14T13:58:30.450Z,7.97
2023-05-14T14:00:59.679Z,7.37
2023-05-14T14:03:26.656Z,8.03
2023-05-14T14:05:56.859Z,8.83
2023-05-14T14:08:27.074Z,7.83
2023-05-14T14:10:57.232Z,6.80
2023-05-14T14:13:26.236Z,8.23
2023-05-14T14:15:53.333Z,7.73
2023-05-14T14:18:22.353Z,9.57
2023-05-14T14:20:49.426Z,10.77
2023-05-14T14:23:18.483Z,10.27
2023-05-14T14:25:45.552Z,11.17
2023-05-14T14:28:15.751Z,12.60
2023-05-14T14:30:43.978Z,10.87
2023-05-14T14:33:11.736Z,10.43
2023-05-14T14:35:40.162Z,10.03
2023-05-14T14:38:10.389Z,10.53
2023-05-14T14:40:38.463Z,9.10
2023-05-14T14:43:08.482Z,8.67
2023-05-14T14:45:38.460Z,8.63
2023-05-14T14:48:28.913Z,8.23
2023-05-14T14:50:59.079Z,9.80
2023-05-14T14:53:29.350Z,7.17
2023-05-14T14:56:00.612Z,7.63
2023-05-14T14:58:31.348Z,6.57
2023-05-14T15:00:58.726Z,6.60
2023-05-14T15:03:26.353Z,6.00
2023-05-14T15:05:54.561Z,5.63
2023-05-14T15:08:26.370Z,6.10
2023-05-14T15:10:54.156Z,6.43
2023-05-14T15:13:22.376Z,6.00
2023-05-14T15:15:51.678Z,6.00
2023-05-14T15:18:18.897Z,6.67
2023-05-14T15:20:49.400Z,6.20
2023-05-14T15:23:17.392Z,5.90
2023-05-14T15:25:47.490Z,6.67
2023-05-14T15:28:16.477Z,6.70
2023-05-14T15:30:43.578Z,6.50
2023-05-14T15:33:11.008Z,6.57
2023-05-14T15:35:41.193Z,7.40
2023-05-14T15:38:10.186Z,7.60
2023-05-14T15:40:40.861Z,6.77
2023-05-14T15:43:11.003Z,6.57
2023-05-14T15:45:41.011Z,6.70
2023-05-14T15:48:08.084Z,6.80
2023-05-14T15:50:35.128Z,6.70
2023-05-14T15:53:05.290Z,7.30
2023-05-14T15:55:35.674Z,7.73
2023-05-14T15:58:06.376Z,6.53
2023-05-14T16:00:33.450Z,7.23
2023-05-14T16:03:03.736Z,8.07
2023-05-14T16:05:33.820Z,7.60
2023-05-14T16:08:03.744Z,7.00
2023-05-14T16:10:32.720Z,7.13
2023-05-14T16:13:02.760Z,7.30
2023-05-14T16:15:29.783Z,6.77
2023-05-14T16:17:57.101Z,7.00
2023-05-14T16:20:26.237Z,6.80
2023-05-14T16:22:54.318Z,7.73
2023-05-14T16:25:21.306Z,6.77
2023-05-14T16:27:48.344Z,5.90
2023-05-14T16:30:15.483Z,9.70
2023-05-14T16:32:42.764Z,8.00
2023-05-14T16:35:10.004Z,6.53
2023-05-14T16:37:37.068Z,5.97
2023-05-14T16:40:06.714Z,7.30
2023-05-14T16:42:33.774Z,6.20
2023-05-14T16:45:00.914Z,6.80
2023-05-14T16:47:33.937Z,6.50
2023-05-14T16:50:03.274Z,5.97
2023-05-14T16:52:33.456Z,9.13
2023-05-14T16:55:00.606Z,7.77
2023-05-14T16:57:30.773Z,10.23
2023-05-14T17:00:01.019Z,6.57
2023-05-14T17:02:34.448Z,16.13
2023-05-14T17:05:02.598Z,10.53
2023-05-14T17:07:32.765Z,10.83
2023-05-14T17:10:02.862Z,7.83
2023-05-14T17:12:29.802Z,7.07
2023-05-14T17:14:56.769Z,6.10
2023-05-14T17:17:30.182Z,6.23
2023-05-14T17:19:57.219Z,6.07
2023-05-14T17:22:24.211Z,8.50
2023-05-14T17:24:51.218Z,9.63
2023-05-14T17:27:18.307Z,17.33
2023-05-14T17:29:45.368Z,11.57
2023-05-14T17:32:12.386Z,9.37
2023-05-14T17:34:40.509Z,6.83
2023-05-14T17:37:07.678Z,7.07
2023-05-14T17:39:34.640Z,5.67
2023-05-14T17:42:03.704Z,6.13
2023-05-14T17:44:31.734Z,8.57
2023-05-14T17:47:00.632Z,7.57
2023-05-14T17:49:30.964Z,8.17
2023-05-14T17:51:59.065Z,6.60
2023-05-14T17:54:26.130Z,5.53
2023-05-14T17:56:54.007Z,5.33
2023-05-14T17:59:24.124Z,6.00
2023-05-14T18:01:51.454Z,6.07
2023-05-14T18:04:18.535Z,6.00
2023-05-14T18:06:46.586Z,6.30
2023-05-14T18:09:16.728Z,7.40
2023-05-14T18:11:45.732Z,8.67
2023-05-14T18:14:17.632Z,7.70
2023-05-14T18:16:44.756Z,6.77
2023-05-14T18:19:11.905Z,7.17
2023-05-14T18:21:39.992Z,7.73
2023-05-14T18:24:13.260Z,8.23
2023-05-14T18:26:42.481Z,7.80
2023-05-14T18:29:12.690Z,7.67
2023-05-14T18:31:39.730Z,7.40
2023-05-14T18:34:06.718Z,7.77
2023-05-14T18:36:34.222Z,7.53
2023-05-14T18:39:01.307Z,8.50
2023-05-14T18:41:28.343Z,8.10
2023-05-14T18:43:58.085Z,7.77
2023-05-14T18:46:26.409Z,8.20
2023-05-14T18:48:53.460Z,7.73
2023-05-14T18:51:23.515Z,7.77
2023-05-14T18:53:53.613Z,15.10
2023-05-14T18:56:24.671Z,18.00
2023-05-14T18:58:54.804Z,10.50
2023-05-14T19:01:25.735Z,9.40
2023-05-14T19:03:58.879Z,8.77
2023-05-14T19:06:26.066Z,7.40
2023-05-14T19:08:56.595Z,7.97
2023-05-14T19:11:26.157Z,8.03
2023-05-14T19:13:54.197Z,7.73
2023-05-14T19:16:21.461Z,7.90
2023-05-14T19:18:49.849Z,7.53
2023-05-14T19:21:20.024Z,8.30
2023-05-14T19:23:48.175Z,9.40
2023-05-14T19:26:16.008Z,8.17
2023-05-14T19:28:46.192Z,7.90
2023-05-14T19:31:14.344Z,8.37
2023-05-14T19:33:42.529Z,9.03
2023-05-14T19:36:09.740Z,8.80
2023-05-14T19:38:40.180Z,8.70
2023-05-14T19:41:09.255Z,9.03
2023-05-14T19:43:37.411Z,8.20
2023-05-14T19:46:06.421Z,7.63
2023-05-14T19:48:35.753Z,9.23
2023-05-14T19:51:03.739Z,8.07
2023-05-14T19:53:30.855Z,10.13
2023-05-14T19:55:58.307Z,10.33
2023-05-14T19:58:29.092Z,11.63
2023-05-14T20:00:58.583Z,9.47
2023-05-14T20:03:27.040Z,9.87
2023-05-14T20:06:00.198Z,10.03
2023-05-14T20:08:29.341Z,9.10
2023-05-14T20:10:59.374Z,9.70
2023-05-14T20:13:31.834Z,8.37
2023-05-14T20:16:05.284Z,8.87
2023-05-14T20:18:35.463Z,7.90
2023-05-14T20:21:04.597Z,8.40
2023-05-14T20:23:32.396Z,10.57
2023-05-14T20:26:02.518Z,9.83
2023-05-14T20:28:31.534Z,9.13
2023-05-14T20:31:04.010Z,9.13
2023-05-14T20:33:34.232Z,9.97
2023-05-14T20:36:04.498Z,10.67
2023-05-14T20:38:35.185Z,10.97
2023-05-14T20:41:13.384Z,10.00
2023-05-14T20:43:43.535Z,11.60
2023-05-14T20:46:12.855Z,9.07
2023-05-14T20:48:43.047Z,10.37
2023-05-14T20:51:16.013Z,11.17
2023-05-14T20:53:46.145Z,11.73
2023-05-14T20:56:13.331Z,11.60
2023-05-14T20:58:43.375Z,11.87
2023-05-14T21:01:11.450Z,10.27
2023-05-14T21:03:39.615Z,10.13
2023-05-14T21:06:07.730Z,10.27
2023-05-14T21:08:39.677Z,9.73
2023-05-14T21:11:08.672Z,9.70
2023-05-14T21:13:35.731Z,9.07
2023-05-14T21:16:02.961Z,9.30
2023-05-14T21:18:32.872Z,12.20
2023-05-14T21:21:05.377Z,10.50
2023-05-14T21:23:35.782Z,10.37
2023-05-14T21:26:03.886Z,9.67
2023-05-14T21:28:31.948Z,11.73
2023-05-14T21:31:01.913Z,12.10
2023-05-14T21:33:32.046Z,11.53
2023-05-14T21:36:01.141Z,15.90
2023-05-14T21:38:33.416Z,15.77
2023-05-14T21:41:00.573Z,15.07
2023-05-14T21:43:29.610Z,14.30
2023-05-14T21:45:57.788Z,16.37
2023-05-14T21:48:28.360Z,19.07
2023-05-14T21:50:57.558Z,22.30
2023-05-14T21:53:30.480Z,23.70
2023-05-14T21:56:00.789Z,16.70
2023-05-14T21:58:28.793Z,16.50
2023-05-14T22:00:58.884Z,15.40
2023-05-14T22:03:26.037Z,15.33
2023-05-14T22:05:54.135Z,15.53
2023-05-14T22:08:21.237Z,13.77
2023-05-14T22:10:51.448Z,13.67
2023-05-14T22:13:21.550Z,13.73
2023-05-14T22:16:01.488Z,13.10
2023-05-14T22:18:41.170Z,11.73
2023-05-14T22:21:08.287Z,15.20
2023-05-14T22:23:37.917Z,13.40
2023-05-14T22:26:08.054Z,12.40
2023-05-14T22:28:42.880Z,11.60
2023-05-14T22:31:13.128Z,14.37
2023-05-14T22:33:42.101Z,17.00
2023-05-14T22:36:10.840Z,18.73
2023-05-14T22:38:41.356Z,16.23
2023-05-14T22:41:08.424Z,18.47
2023-05-14T22:43:38.484Z,17.20
2023-05-14T22:46:08.659Z,19.20
2023-05-14T22:48:38.729Z,16.57
2023-05-14T22:51:07.411Z,16.13
2023-05-14T22:53:35.365Z,16.47
2023-05-14T22:56:05.903Z,13.63
2023-05-14T22:58:32.988Z,14.43
2023-05-14T23:01:00.013Z,14.57
2023-05-14T23:03:27.142Z,15.07
2023-05-14T23:05:56.250Z,16.83
2023-05-14T23:08:24.220Z,18.30
2023-05-14T23:10:54.918Z,18.63
2023-05-14T23:13:22.999Z,18.93
2023-05-14T23:15:51.081Z,16.07
2023-05-14T23:18:21.288Z,18.70
2023-05-14T23:20:51.507Z,17.20
2023-05-14T23:23:21.562Z,19.00
2023-05-14T23:25:50.314Z,17.70
2023-05-14T23:28:20.334Z,18.73
2023-05-14T23:30:50.366Z,18.40
2023-05-14T23:33:17.281Z,19.10
2023-05-14T23:35:44.683Z,18.63
2023-05-14T23:38:11.869Z,17.87
2023-05-14T23:40:38.909Z,18.77
2023-05-14T23:43:08.848Z,17.83
2023-05-14T23:45:39.079Z,17.93
2023-05-14T23:48:06.754Z,17.33
2023-05-14T23:50:33.793Z,20.20
2023-05-14T23:53:04.022Z,21.40
2023-05-14T23:55:34.350Z,20.83
2023-05-14T23:58:03.550Z,22.83
